Indialantic, Florida
Current Conditions -  °F | °C
As of 4:53 PM on Sunday 23 Nov 2014 (Local Time) from KMLB Reporting Station
Few Clouds Few Clouds  
Wind Chill: 80°   Ceiling: Unl
Heat Index: 84°   Visibility: 10mi
Dew Point: 73°   Wind: 10mph
Humidity: 79%   Direction: 150°SSE
Pressure: 29.9"   Gusts: NA
Location:  28.09°N, 80.57°W
Report Text: KMLB 232153Z 15009KT 10SM FEW075 27/23 A2990 RMK AO2 RAB38E47 SLP124 P0000 T02670228
Loading
Personal Weather Stations






























Interactive Weather Map New forecast layout! Learn more

10-Day Weather Forecast

Advertisements
Track Severe Weather on mobile